ナンディ の空港の天気 - METARとTAF

ナンディ国際空港 ( NFFN / NAN ) - フィジー ナンディ (ビティレブ島)
飛行場実況気象(Metar)
観測時間07/23 06:00 FJT (07/22 18:00 UTC)
風向・風速不定 1m/s
視程10km以上
天気現象
少しの雲 雲底高度 910m
全天の4割程度の雲 雲底高度 1520m
気温21℃
湿度88%
気圧1013hPa
METARNFFN 221800Z VRB02KT 9999 FEW030 SCT050 21/19 Q1013 NOSIG
過去の天気等 Google飛行場航空写真 Wunderground天気予報

過去48時間のMETAR

飛行場予報(TAF)
発表時間: 7/23 05:01 FJT (7/22 17:01 UTC)
予報対象時間: 23日6時 FJT ~ 24日6時 FJT
風向・風速不定 2m/s
視程10km以上
全天の4割程度の雲 雲底高度 760m
23日9時 FJT ~ 23日11時 FJT に徐々に
風向・風速西 5m/s
TAF NFFN 221701Z 2218/2318 VRB03KT 9999 SCT025
BECMG 2221/2223 26010KT